createdAt,value
2023-01-01T00:00:27.988Z,13.95
2023-01-01T00:02:34.940Z,13.93
2023-01-01T00:04:38.590Z,13.88
2023-01-01T00:06:41.223Z,13.88
2023-01-01T00:08:42.904Z,13.81
2023-01-01T00:10:44.547Z,13.89
2023-01-01T00:12:46.384Z,13.84
2023-01-01T00:14:48.099Z,13.98
2023-01-01T00:16:49.984Z,14.02
2023-01-01T00:18:51.664Z,14.00
2023-01-01T00:21:02.647Z,14.06
2023-01-01T00:23:04.351Z,14.15
2023-01-01T00:25:06.978Z,14.14
2023-01-01T00:27:08.722Z,14.13
2023-01-01T00:29:10.415Z,14.09
2023-01-01T00:31:17.799Z,14.08
2023-01-01T00:33:19.675Z,14.21
2023-01-01T00:35:21.358Z,13.91
2023-01-01T00:37:23.163Z,13.98
2023-01-01T00:39:24.865Z,13.93
2023-01-01T00:41:26.526Z,13.85
2023-01-01T00:43:28.290Z,13.78
2023-01-01T00:45:29.943Z,13.90
2023-01-01T00:47:31.668Z,13.81
2023-01-01T00:49:33.375Z,13.76
2023-01-01T00:51:37.367Z,13.85
2023-01-01T00:53:39.240Z,13.88
2023-01-01T00:55:41.733Z,13.77
2023-01-01T00:57:43.387Z,13.78
2023-01-01T00:59:45.229Z,13.81
2023-01-01T01:01:47.014Z,13.70
2023-01-01T01:03:48.931Z,13.64
2023-01-01T01:05:50.665Z,13.66
2023-01-01T01:07:52.684Z,13.61
2023-01-01T01:09:54.510Z,13.68
2023-01-01T01:12:17.286Z,13.69
2023-01-01T01:14:18.154Z,13.56
2023-01-01T01:16:23.543Z,13.60
2023-01-01T01:18:25.770Z,13.56
2023-01-01T01:20:27.569Z,13.58
2023-01-01T01:22:29.499Z,13.63
2023-01-01T01:24:31.244Z,13.59
2023-01-01T01:26:35.282Z,13.62
2023-01-01T01:28:37.048Z,13.58
2023-01-01T01:30:41.755Z,13.56
2023-01-01T01:32:43.525Z,13.62
2023-01-01T01:34:45.604Z,13.47
2023-01-01T01:36:47.978Z,13.55
2023-01-01T01:38:49.741Z,13.55
2023-01-01T01:40:51.671Z,13.47
2023-01-01T01:42:53.445Z,13.55
2023-01-01T01:44:57.959Z,13.42
2023-01-01T01:47:01.541Z,13.29
2023-01-01T01:49:14.847Z,13.28
2023-01-01T01:51:24.829Z,13.46
2023-01-01T01:53:31.098Z,13.38
2023-01-01T01:55:35.975Z,13.41
2023-01-01T01:57:39.496Z,13.26
2023-01-01T01:59:47.634Z,13.30
2023-01-01T02:01:49.490Z,13.23
2023-01-01T02:03:58.827Z,13.29
2023-01-01T02:06:02.406Z,13.31
2023-01-01T02:08:05.429Z,13.29
2023-01-01T02:10:07.439Z,13.31
2023-01-01T02:12:09.279Z,13.26
2023-01-01T02:14:11.125Z,13.36
2023-01-01T02:16:20.257Z,13.17
2023-01-01T02:18:27.878Z,13.24
2023-01-01T02:20:39.643Z,13.19
2023-01-01T02:23:04.008Z,13.28
2023-01-01T02:25:10.795Z,13.19
2023-01-01T02:27:18.882Z,13.23
2023-01-01T02:29:33.593Z,13.19
2023-01-01T02:31:49.584Z,13.22
2023-01-01T02:33:56.057Z,13.31
2023-01-01T02:36:02.290Z,13.30
2023-01-01T02:38:23.230Z,13.24
2023-01-01T02:40:26.603Z,13.27
2023-01-01T02:42:30.143Z,13.31
2023-01-01T02:44:37.932Z,13.21
2023-01-01T02:46:40.206Z,13.16
2023-01-01T02:48:43.747Z,13.09
2023-01-01T02:50:46.867Z,13.05
2023-01-01T02:53:00.287Z,13.11
2023-01-01T02:55:15.308Z,13.04
2023-01-01T02:57:27.862Z,12.73
2023-01-01T02:59:39.174Z,12.99
2023-01-01T03:01:49.578Z,13.10
2023-01-01T03:04:08.613Z,13.05
2023-01-01T03:06:28.659Z,13.14
2023-01-01T03:08:37.648Z,13.08
2023-01-01T03:10:43.960Z,13.03
2023-01-01T03:13:00.823Z,13.04
2023-01-01T03:15:13.812Z,13.00
2023-01-01T03:17:35.873Z,12.96
2023-01-01T03:19:41.356Z,12.95
2023-01-01T03:21:50.287Z,12.99
2023-01-01T03:23:54.897Z,12.87
2023-01-01T03:26:03.055Z,12.81
2023-01-01T03:28:10.704Z,12.90
2023-01-01T03:30:14.793Z,12.93
2023-01-01T03:32:44.998Z,12.87
2023-01-01T03:34:53.674Z,12.94
2023-01-01T03:36:58.215Z,12.88
2023-01-01T03:39:06.231Z,12.95
2023-01-01T03:41:15.710Z,13.03
2023-01-01T03:43:34.775Z,12.96
2023-01-01T03:45:40.904Z,12.93
2023-01-01T03:47:43.239Z,12.80
2023-01-01T03:49:46.237Z,12.84
2023-01-01T03:51:58.454Z,12.95
2023-01-01T03:54:07.398Z,13.06
2023-01-01T03:56:28.365Z,13.01
2023-01-01T03:58:46.507Z,13.00
2023-01-01T04:00:56.085Z,12.88
2023-01-01T04:03:03.921Z,12.90
2023-01-01T04:05:10.204Z,12.82
2023-01-01T04:07:15.867Z,12.77
2023-01-01T04:09:23.974Z,12.88
2023-01-01T04:11:39.149Z,12.77
2023-01-01T04:13:48.637Z,12.59
2023-01-01T04:15:50.815Z,12.71
2023-01-01T04:17:53.503Z,12.63
2023-01-01T04:19:55.507Z,12.71
2023-01-01T04:21:57.769Z,12.73
2023-01-01T04:23:59.600Z,12.67
2023-01-01T04:26:01.258Z,12.63
2023-01-01T04:28:03.684Z,12.66
2023-01-01T04:30:08.039Z,12.72
2023-01-01T04:32:09.735Z,12.68
2023-01-01T04:34:11.840Z,12.68
2023-01-01T04:36:13.603Z,12.79
2023-01-01T04:38:15.268Z,12.72
2023-01-01T04:40:17.131Z,12.62
2023-01-01T04:42:19.251Z,12.61
2023-01-01T04:44:20.953Z,12.71
2023-01-01T04:46:23.862Z,12.53
2023-01-01T04:48:26.710Z,12.61
2023-01-01T04:50:28.403Z,12.54
2023-01-01T04:52:30.081Z,12.50
2023-01-01T04:54:31.730Z,12.48
2023-01-01T04:56:33.894Z,12.52
2023-01-01T04:58:37.509Z,12.51
2023-01-01T05:00:39.309Z,12.51
2023-01-01T05:02:41.192Z,12.50
2023-01-01T05:04:43.030Z,12.58
2023-01-01T05:06:44.759Z,12.51
2023-01-01T05:08:48.630Z,12.58
2023-01-01T05:10:50.325Z,12.45
2023-01-01T05:12:52.059Z,12.59
2023-01-01T05:14:53.720Z,12.47
2023-01-01T05:16:55.446Z,12.45
2023-01-01T05:18:57.740Z,12.46
2023-01-01T05:21:01.057Z,12.55
2023-01-01T05:23:02.711Z,12.38
2023-01-01T05:25:05.124Z,12.44
2023-01-01T05:27:06.879Z,12.34
2023-01-01T05:29:15.595Z,12.36
2023-01-01T05:31:21.774Z,12.46
2023-01-01T05:33:23.489Z,12.51
2023-01-01T05:35:26.747Z,12.54
2023-01-01T05:37:28.698Z,12.50
2023-01-01T05:39:30.374Z,12.58
2023-01-01T05:41:34.248Z,12.55
2023-01-01T05:43:36.531Z,12.47
2023-01-01T05:45:38.244Z,12.56
2023-01-01T05:47:39.959Z,12.51
2023-01-01T05:49:41.622Z,12.52
2023-01-01T05:51:43.274Z,12.59
2023-01-01T05:53:45.221Z,12.63
2023-01-01T05:55:53.212Z,12.56
2023-01-01T05:57:55.135Z,12.49
2023-01-01T05:59:56.842Z,12.64
2023-01-01T06:01:58.672Z,12.53
2023-01-01T06:04:00.753Z,12.68
2023-01-01T06:06:05.608Z,12.78
2023-01-01T06:08:07.298Z,12.55
2023-01-01T06:10:09.501Z,12.59
2023-01-01T06:12:11.190Z,12.46
2023-01-01T06:14:12.837Z,12.70
2023-01-01T06:16:14.776Z,12.54
2023-01-01T06:18:16.523Z,12.71
2023-01-01T06:20:18.259Z,12.67
2023-01-01T06:22:19.895Z,12.62
2023-01-01T06:24:21.580Z,12.66
2023-01-01T06:26:26.231Z,12.70
2023-01-01T06:28:27.855Z,12.57
2023-01-01T06:30:31.661Z,12.73
2023-01-01T06:32:33.685Z,12.72
2023-01-01T06:34:35.329Z,12.76
2023-01-01T06:36:37.028Z,12.77
2023-01-01T06:38:42.192Z,12.73
2023-01-01T06:40:43.841Z,12.77
2023-01-01T06:42:45.587Z,12.64
2023-01-01T06:44:47.254Z,12.70
2023-01-01T06:46:48.994Z,12.75
2023-01-01T06:48:54.168Z,12.68
2023-01-01T06:50:56.029Z,12.78
2023-01-01T06:52:57.646Z,12.81
2023-01-01T06:54:59.286Z,12.79
2023-01-01T06:57:01.056Z,12.70
2023-01-01T06:59:03.266Z,12.62
2023-01-01T07:01:17.648Z,12.58
2023-01-01T07:03:19.529Z,12.67
2023-01-01T07:05:21.286Z,12.60
2023-01-01T07:07:22.963Z,12.65
2023-01-01T07:09:24.625Z,12.65
2023-01-01T07:11:27.196Z,12.64
2023-01-01T07:13:30.147Z,12.63
2023-01-01T07:15:31.837Z,12.62
2023-01-01T07:17:33.551Z,12.66
2023-01-01T07:19:35.232Z,12.56
2023-01-01T07:21:44.713Z,12.61
2023-01-01T07:23:46.434Z,12.75
2023-01-01T07:25:50.844Z,12.76
2023-01-01T07:27:52.494Z,12.65
2023-01-01T07:29:54.153Z,12.65
2023-01-01T07:31:55.789Z,12.70
2023-01-01T07:33:57.475Z,12.72
2023-01-01T07:35:59.174Z,12.68
2023-01-01T07:38:00.859Z,12.69
2023-01-01T07:40:02.546Z,12.59
2023-01-01T07:42:10.707Z,12.62
2023-01-01T07:44:12.747Z,12.66
2023-01-01T07:46:18.947Z,12.68
2023-01-01T07:48:21.079Z,12.64
2023-01-01T07:50:24.191Z,12.64
2023-01-01T07:52:25.885Z,12.61
2023-01-01T07:54:27.522Z,12.53
2023-01-01T07:56:29.246Z,12.63
2023-01-01T07:58:31.159Z,12.73
2023-01-01T08:00:32.825Z,12.77
2023-01-01T08:02:34.596Z,12.80
2023-01-01T08:04:36.311Z,12.69
2023-01-01T08:06:38.027Z,12.75
2023-01-01T08:08:41.395Z,12.78
2023-01-01T08:10:43.097Z,12.77
2023-01-01T08:12:44.813Z,12.74
2023-01-01T08:14:46.481Z,12.79
2023-01-01T08:16:48.197Z,12.88
2023-01-01T08:18:49.955Z,12.80
2023-01-01T08:20:51.625Z,12.81
2023-01-01T08:22:53.310Z,12.90
2023-01-01T08:24:54.979Z,12.81
2023-01-01T08:26:56.643Z,12.94
2023-01-01T08:28:58.953Z,12.93
2023-01-01T08:31:00.690Z,12.89
2023-01-01T08:33:02.499Z,12.88
2023-01-01T08:35:04.924Z,12.81
2023-01-01T08:37:07.133Z,12.73
2023-01-01T08:39:09.074Z,12.65
2023-01-01T08:41:10.809Z,12.72
2023-01-01T08:43:12.475Z,12.60
2023-01-01T08:45:14.175Z,12.55
2023-01-01T08:47:21.142Z,12.52
2023-01-01T08:49:23.015Z,12.58
2023-01-01T08:51:24.715Z,12.58
2023-01-01T08:53:27.489Z,12.57
2023-01-01T08:55:29.540Z,12.43
2023-01-01T08:57:31.681Z,12.42
2023-01-01T08:59:33.467Z,12.41
2023-01-01T09:01:35.162Z,12.43
2023-01-01T09:03:37.162Z,12.50
2023-01-01T09:05:38.876Z,12.48
2023-01-01T09:07:40.688Z,12.57
2023-01-01T09:09:42.388Z,12.56
2023-01-01T09:11:55.783Z,12.68
2023-01-01T09:13:57.446Z,12.73
2023-01-01T09:15:59.826Z,12.70
2023-01-01T09:18:02.676Z,12.65
2023-01-01T09:20:04.838Z,12.57
2023-01-01T09:22:10.730Z,12.60
2023-01-01T09:24:12.447Z,12.59
2023-01-01T09:26:14.084Z,12.70
2023-01-01T09:28:18.163Z,12.75
2023-01-01T09:30:23.825Z,12.80
2023-01-01T09:32:25.519Z,12.74
2023-01-01T09:34:27.329Z,12.78
2023-01-01T09:36:32.269Z,12.64
2023-01-01T09:38:34.064Z,12.65
2023-01-01T09:40:53.885Z,12.71
2023-01-01T09:43:09.402Z,12.63
2023-01-01T09:45:27.002Z,12.73
2023-01-01T09:47:37.380Z,12.83
2023-01-01T09:49:43.935Z,12.81
2023-01-01T09:51:58.370Z,12.69
2023-01-01T09:54:16.269Z,12.65
2023-01-01T09:56:24.425Z,12.67
2023-01-01T09:58:32.430Z,12.67
2023-01-01T10:00:35.521Z,12.71
2023-01-01T10:03:03.490Z,12.79
2023-01-01T10:05:16.890Z,12.68
2023-01-01T10:07:29.440Z,12.73
2023-01-01T10:09:43.309Z,12.79
2023-01-01T10:12:01.246Z,12.70
2023-01-01T10:14:14.030Z,12.84
2023-01-01T10:16:30.877Z,12.87
2023-01-01T10:18:38.349Z,13.01
2023-01-01T10:20:46.581Z,13.04
2023-01-01T10:23:00.438Z,13.10
2023-01-01T10:25:18.662Z,13.20
2023-01-01T10:27:34.342Z,13.12
2023-01-01T10:29:46.726Z,13.06
2023-01-01T10:31:49.349Z,13.18
2023-01-01T10:33:51.400Z,12.92
2023-01-01T10:35:57.025Z,13.08
2023-01-01T10:38:00.513Z,13.12
2023-01-01T10:40:13.491Z,13.22
2023-01-01T10:42:16.584Z,13.13
2023-01-01T10:44:32.506Z,13.20
2023-01-01T10:46:37.483Z,13.15
2023-01-01T10:48:39.622Z,13.12
2023-01-01T10:50:43.392Z,13.13
2023-01-01T10:52:56.677Z,13.18
2023-01-01T10:55:00.105Z,13.21
2023-01-01T10:57:16.407Z,13.11
2023-01-01T10:59:37.507Z,13.14
2023-01-01T11:01:39.453Z,13.16
2023-01-01T11:04:02.349Z,13.21
2023-01-01T11:06:06.116Z,13.18
2023-01-01T11:08:19.312Z,13.20
2023-01-01T11:10:24.002Z,13.26
2023-01-01T11:13:03.595Z,13.30
2023-01-01T11:14:56.214Z,13.12
2023-01-01T11:16:59.595Z,13.26
2023-01-01T11:19:05.547Z,13.29
2023-01-01T11:21:08.267Z,13.34
2023-01-01T11:23:20.188Z,13.27
2023-01-01T11:25:23.970Z,13.33
2023-01-01T11:27:26.261Z,13.33
2023-01-01T11:29:29.691Z,13.25
2023-01-01T11:31:37.541Z,13.21
2023-01-01T11:33:44.760Z,13.15
2023-01-01T11:35:53.251Z,13.23
2023-01-01T11:37:57.734Z,13.27
2023-01-01T11:40:01.862Z,13.27
2023-01-01T11:42:05.697Z,13.29
2023-01-01T11:44:10.711Z,13.38
2023-01-01T11:46:20.225Z,13.29
2023-01-01T11:48:33.400Z,13.31
2023-01-01T11:50:39.142Z,13.31
2023-01-01T11:52:42.961Z,13.29
2023-01-01T11:54:46.702Z,13.39
2023-01-01T11:56:52.731Z,13.30
2023-01-01T11:58:59.659Z,13.31
2023-01-01T12:01:09.640Z,13.33
2023-01-01T12:03:28.096Z,13.40
2023-01-01T12:05:47.207Z,13.41
2023-01-01T12:07:50.058Z,13.38
2023-01-01T12:10:02.431Z,13.42
2023-01-01T12:12:13.579Z,13.45
2023-01-01T12:14:28.271Z,13.29
2023-01-01T12:16:48.573Z,13.29
2023-01-01T12:19:02.826Z,13.40
2023-01-01T12:21:19.905Z,13.51
2023-01-01T12:23:21.830Z,13.56
2023-01-01T12:25:27.314Z,13.53
2023-01-01T12:27:40.104Z,13.56
2023-01-01T12:29:49.131Z,13.52
2023-01-01T12:32:01.796Z,13.60
2023-01-01T12:34:20.676Z,13.62
2023-01-01T12:36:34.212Z,13.55
2023-01-01T12:38:56.182Z,13.55
2023-01-01T12:41:14.675Z,13.38
2023-01-01T12:43:27.454Z,13.53
2023-01-01T12:45:36.091Z,13.48
2023-01-01T12:47:42.347Z,13.51
2023-01-01T12:50:04.736Z,13.51
2023-01-01T12:52:19.633Z,13.42
2023-01-01T12:54:33.729Z,13.37
2023-01-01T12:56:44.890Z,13.44
2023-01-01T12:58:57.545Z,13.48
2023-01-01T13:01:12.882Z,13.40
2023-01-01T13:03:21.862Z,13.44
2023-01-01T13:05:29.612Z,13.55
2023-01-01T13:07:37.057Z,13.38
2023-01-01T13:09:45.420Z,13.46
2023-01-01T13:11:52.580Z,13.48
2023-01-01T13:13:54.616Z,13.57
2023-01-01T13:15:57.527Z,13.54
2023-01-01T13:17:59.929Z,13.42
2023-01-01T13:20:05.245Z,13.56
2023-01-01T13:22:26.962Z,13.47
2023-01-01T13:24:28.853Z,13.46
2023-01-01T13:26:32.766Z,13.49
2023-01-01T13:28:34.692Z,13.57
2023-01-01T13:30:37.413Z,13.57
2023-01-01T13:33:08.431Z,13.58
2023-01-01T13:35:17.492Z,13.54
2023-01-01T13:37:27.778Z,13.64
2023-01-01T13:39:50.135Z,13.63
2023-01-01T13:41:52.124Z,13.62
2023-01-01T13:44:11.643Z,13.45
2023-01-01T13:46:14.817Z,13.50
2023-01-01T13:48:35.121Z,13.47
2023-01-01T13:50:44.259Z,13.49
2023-01-01T13:53:04.414Z,13.56
2023-01-01T13:55:19.460Z,13.56
2023-01-01T13:57:40.603Z,13.51
2023-01-01T13:59:58.548Z,13.60
2023-01-01T14:02:19.497Z,13.57
2023-01-01T14:04:31.677Z,13.63
2023-01-01T14:06:43.477Z,13.69
2023-01-01T14:08:45.355Z,13.69
2023-01-01T14:10:50.543Z,13.72
2023-01-01T14:12:54.512Z,13.67
2023-01-01T14:14:56.412Z,13.76
2023-01-01T14:17:02.297Z,13.67
2023-01-01T14:19:04.370Z,13.66
2023-01-01T14:21:18.385Z,13.72
2023-01-01T14:23:28.451Z,13.64
2023-01-01T14:25:30.507Z,13.69
2023-01-01T14:27:32.750Z,13.67
2023-01-01T14:29:36.039Z,13.71
2023-01-01T14:31:44.455Z,13.66
2023-01-01T14:33:47.225Z,13.74
2023-01-01T14:35:53.891Z,13.83
2023-01-01T14:37:56.601Z,13.84
2023-01-01T14:40:08.109Z,13.80
2023-01-01T14:42:16.579Z,13.76
2023-01-01T14:44:23.167Z,13.80
2023-01-01T14:46:27.207Z,13.80
2023-01-01T14:48:29.246Z,13.71
2023-01-01T14:50:34.327Z,13.64
2023-01-01T14:52:36.508Z,13.63
2023-01-01T14:54:42.183Z,13.60
2023-01-01T14:56:50.757Z,13.66
2023-01-01T14:58:53.542Z,13.57
2023-01-01T15:01:14.904Z,13.63
2023-01-01T15:03:20.175Z,13.54
2023-01-01T15:05:23.584Z,13.56
2023-01-01T15:07:31.349Z,13.47
2023-01-01T15:09:33.744Z,13.56
2023-01-01T15:11:35.631Z,13.57
2023-01-01T15:13:37.555Z,13.58
2023-01-01T15:15:44.301Z,13.56
2023-01-01T15:17:47.697Z,13.56
2023-01-01T15:20:01.551Z,13.54
2023-01-01T15:22:12.913Z,13.46
2023-01-01T15:24:24.090Z,13.49
2023-01-01T15:26:32.136Z,13.45
2023-01-01T15:28:34.161Z,13.44
2023-01-01T15:30:37.033Z,13.49
2023-01-01T15:32:39.486Z,13.51
2023-01-01T15:34:44.255Z,13.58
2023-01-01T15:36:46.113Z,13.56
2023-01-01T15:38:48.753Z,13.48
2023-01-01T15:40:54.066Z,13.42
2023-01-01T15:42:57.610Z,13.51
2023-01-01T15:45:22.199Z,13.56
2023-01-01T15:47:26.889Z,13.61
2023-01-01T15:49:30.671Z,13.58
2023-01-01T15:51:32.855Z,13.39
2023-01-01T15:53:54.757Z,13.47
2023-01-01T15:56:00.295Z,13.46
2023-01-01T15:58:03.600Z,13.48
2023-01-01T16:00:06.070Z,13.51
2023-01-01T16:02:18.522Z,13.43
2023-01-01T16:04:28.762Z,13.51
2023-01-01T16:06:31.145Z,13.44
2023-01-01T16:08:33.076Z,13.36
2023-01-01T16:10:35.132Z,13.37
2023-01-01T16:12:37.040Z,13.40
2023-01-01T16:14:38.948Z,13.38
2023-01-01T16:16:45.588Z,13.34
2023-01-01T16:18:47.849Z,13.34
2023-01-01T16:20:49.885Z,13.41
2023-01-01T16:22:51.720Z,13.43
2023-01-01T16:24:55.121Z,13.42
2023-01-01T16:26:57.061Z,13.42
2023-01-01T16:28:58.823Z,13.41
2023-01-01T16:31:00.819Z,13.39
2023-01-01T16:33:04.603Z,13.34
2023-01-01T16:35:12.070Z,13.18
2023-01-01T16:37:16.586Z,13.21
2023-01-01T16:39:19.138Z,13.23
2023-01-01T16:41:21.080Z,13.25
2023-01-01T16:43:23.141Z,13.24
2023-01-01T16:45:25.072Z,13.20
2023-01-01T16:47:27.035Z,13.24
2023-01-01T16:49:28.954Z,13.30
2023-01-01T16:51:32.314Z,13.20
2023-01-01T16:53:36.439Z,13.24
2023-01-01T16:55:38.481Z,13.22
2023-01-01T16:57:41.239Z,13.18
2023-01-01T16:59:43.151Z,13.09
2023-01-01T17:01:45.214Z,13.12
2023-01-01T17:03:47.380Z,13.11
2023-01-01T17:05:49.220Z,13.10
2023-01-01T17:07:52.470Z,13.04
2023-01-01T17:09:54.271Z,13.07
2023-01-01T17:11:56.163Z,13.03
2023-01-01T17:13:59.905Z,13.02
2023-01-01T17:16:03.030Z,13.09
2023-01-01T17:18:05.213Z,13.08
2023-01-01T17:20:07.874Z,13.06
2023-01-01T17:22:09.872Z,13.11
2023-01-01T17:24:11.808Z,13.11
2023-01-01T17:26:16.422Z,13.11
2023-01-01T17:28:18.332Z,13.05
2023-01-01T17:30:20.265Z,12.99
2023-01-01T17:32:22.171Z,13.10
2023-01-01T17:34:24.121Z,13.06
2023-01-01T17:36:27.694Z,13.03
2023-01-01T17:38:29.977Z,12.85
2023-01-01T17:40:36.710Z,12.91
2023-01-01T17:42:39.486Z,12.87
2023-01-01T17:44:41.393Z,12.83
2023-01-01T17:46:44.749Z,12.90
2023-01-01T17:48:47.138Z,12.94
2023-01-01T17:50:49.045Z,13.02
2023-01-01T17:52:52.609Z,13.04
2023-01-01T17:54:54.501Z,13.01
2023-01-01T17:56:59.631Z,12.98
2023-01-01T17:59:01.731Z,12.96
2023-01-01T18:01:11.483Z,12.97
2023-01-01T18:03:14.398Z,12.86
2023-01-01T18:05:16.600Z,12.89
2023-01-01T18:07:18.821Z,12.82
2023-01-01T18:11:26.193Z,12.79
2023-01-01T18:13:28.849Z,12.74
2023-01-01T18:15:30.810Z,12.75
2023-01-01T18:17:33.103Z,12.70
2023-01-01T18:19:37.431Z,12.65
2023-01-01T18:21:39.526Z,12.61
2023-01-01T18:23:42.017Z,12.65
2023-01-01T18:25:43.900Z,12.57
2023-01-01T18:27:45.832Z,12.58
2023-01-01T18:29:49.800Z,12.52
2023-01-01T18:31:51.683Z,12.50
2023-01-01T18:33:54.332Z,12.46
2023-01-01T18:35:57.726Z,12.40
2023-01-01T18:37:59.837Z,12.45
2023-01-01T18:40:01.728Z,12.42
2023-01-01T18:42:15.536Z,12.37
2023-01-01T18:44:28.826Z,12.33
2023-01-01T18:46:31.562Z,12.34
2023-01-01T18:48:33.315Z,12.34
2023-01-01T18:50:36.671Z,12.34
2023-01-01T18:52:42.413Z,12.29
2023-01-01T18:54:44.129Z,12.27
2023-01-01T18:56:46.593Z,12.24
2023-01-01T18:58:49.831Z,12.19
2023-01-01T19:00:53.870Z,12.20
2023-01-01T19:02:58.633Z,12.20
2023-01-01T19:05:30.757Z,12.12
2023-01-01T19:07:32.428Z,12.16
2023-01-01T19:09:37.226Z,12.10
2023-01-01T19:11:39.069Z,12.10
2023-01-01T19:13:40.767Z,12.10
2023-01-01T19:16:17.947Z,12.05
2023-01-01T19:18:25.423Z,12.07
2023-01-01T19:20:27.100Z,12.07
2023-01-01T19:22:37.072Z,12.04
2023-01-01T19:24:39.510Z,12.07
2023-01-01T19:26:41.240Z,12.02
2023-01-01T19:28:49.439Z,12.00
2023-01-01T19:30:51.242Z,11.99
2023-01-01T19:32:53.048Z,11.96
2023-01-01T19:34:56.180Z,11.92
2023-01-01T19:36:57.981Z,11.90
2023-01-01T19:38:59.690Z,11.92
2023-01-01T19:41:01.382Z,11.87
2023-01-01T19:43:03.765Z,11.82
2023-01-01T19:45:08.380Z,11.81
2023-01-01T19:47:10.698Z,11.86
2023-01-01T19:49:12.410Z,11.85
2023-01-01T19:51:14.082Z,11.87
2023-01-01T19:53:15.976Z,11.91
2023-01-01T19:55:17.873Z,11.91
2023-01-01T19:57:20.559Z,11.91
2023-01-01T19:59:26.376Z,11.96
2023-01-01T20:01:32.835Z,11.93
2023-01-01T20:03:53.454Z,11.93
2023-01-01T20:05:56.381Z,11.97
2023-01-01T20:07:58.088Z,11.94
2023-01-01T20:09:59.734Z,11.94
2023-01-01T20:12:01.400Z,11.94
2023-01-01T20:14:03.865Z,11.97
2023-01-01T20:16:06.005Z,11.91
2023-01-01T20:18:07.720Z,11.92
2023-01-01T20:20:10.961Z,11.91
2023-01-01T20:22:14.109Z,11.90
2023-01-01T20:24:17.647Z,11.84
2023-01-01T20:26:20.864Z,11.89
2023-01-01T20:28:41.428Z,11.89
2023-01-01T20:30:43.231Z,11.87
2023-01-01T20:32:46.662Z,11.87
2023-01-01T20:34:48.512Z,11.82
2023-01-01T20:37:09.027Z,11.82
2023-01-01T20:39:10.684Z,11.80
2023-01-01T20:41:24.450Z,11.78
2023-01-01T20:43:26.194Z,11.73
2023-01-01T20:45:27.901Z,11.73
2023-01-01T20:47:29.715Z,11.72
2023-01-01T20:49:31.455Z,11.70
2023-01-01T20:51:33.423Z,11.66
2023-01-01T20:53:35.085Z,11.67
2023-01-01T20:55:36.821Z,11.68
2023-01-01T20:57:38.508Z,11.62
2023-01-01T20:59:40.329Z,11.60
2023-01-01T21:01:42.945Z,11.58
2023-01-01T21:03:44.702Z,11.59
2023-01-01T21:05:46.716Z,11.54
2023-01-01T21:07:48.377Z,11.53
2023-01-01T21:09:50.052Z,11.55
2023-01-01T21:11:51.805Z,11.52
2023-01-01T21:13:53.616Z,11.47
2023-01-01T21:16:00.492Z,11.46
2023-01-01T21:18:05.373Z,11.48
2023-01-01T21:20:08.444Z,11.44
2023-01-01T21:22:12.736Z,11.46
2023-01-01T21:24:28.207Z,11.43
2023-01-01T21:26:35.938Z,11.44
2023-01-01T21:28:37.649Z,11.44
2023-01-01T21:30:54.933Z,11.37
2023-01-01T21:32:56.669Z,11.38
2023-01-01T21:34:58.348Z,11.35
2023-01-01T21:37:41.724Z,11.33
2023-01-01T21:39:43.690Z,11.31
2023-01-01T21:41:45.379Z,11.32
2023-01-01T21:43:50.349Z,11.35
2023-01-01T21:45:52.776Z,11.34
2023-01-01T21:47:54.505Z,11.30
2023-01-01T21:49:56.633Z,11.34
2023-01-01T21:52:01.066Z,11.31
2023-01-01T21:54:17.545Z,11.25
2023-01-01T21:56:35.331Z,11.25
2023-01-01T21:59:01.924Z,11.17
2023-01-01T22:01:26.449Z,11.28
2023-01-01T22:03:28.680Z,11.29
2023-01-01T22:05:32.119Z,11.26
2023-01-01T22:07:57.916Z,11.27
2023-01-01T22:10:10.220Z,11.25
2023-01-01T22:12:14.739Z,11.18
2023-01-01T22:14:23.298Z,11.24
2023-01-01T22:16:33.970Z,11.24
2023-01-01T22:18:39.402Z,11.23
2023-01-01T22:20:44.308Z,11.21
2023-01-01T22:22:46.006Z,11.20
2023-01-01T22:24:57.050Z,11.20
2023-01-01T22:27:14.125Z,11.18
2023-01-01T22:29:21.871Z,11.16
2023-01-01T22:31:30.932Z,11.13
2023-01-01T22:33:38.237Z,11.17
2023-01-01T22:35:40.007Z,11.15
2023-01-01T22:37:42.454Z,11.11
2023-01-01T22:39:44.317Z,11.23
2023-01-01T22:41:50.278Z,11.27
2023-01-01T22:43:58.233Z,11.17
2023-01-01T22:46:11.963Z,11.18
2023-01-01T22:48:23.207Z,11.19
2023-01-01T22:50:27.669Z,11.27
2023-01-01T22:52:29.797Z,11.18
2023-01-01T22:54:31.451Z,11.16
2023-01-01T22:56:33.154Z,11.15
2023-01-01T22:58:34.836Z,11.21
2023-01-01T23:00:36.497Z,11.14
2023-01-01T23:02:46.368Z,11.11
2023-01-01T23:04:48.081Z,11.11
2023-01-01T23:06:49.876Z,10.98
2023-01-01T23:08:52.551Z,10.95
2023-01-01T23:10:54.518Z,10.95
2023-01-01T23:12:56.182Z,10.96
2023-01-01T23:15:17.350Z,10.98
2023-01-01T23:17:19.104Z,10.92
2023-01-01T23:19:20.971Z,10.97
2023-01-01T23:21:27.100Z,10.96
2023-01-01T23:23:31.137Z,10.87
2023-01-01T23:25:33.174Z,10.80
2023-01-01T23:27:35.305Z,10.85
2023-01-01T23:29:37.193Z,10.88
2023-01-01T23:31:40.094Z,10.93
2023-01-01T23:33:42.180Z,10.95
2023-01-01T23:35:43.953Z,10.87
2023-01-01T23:37:45.691Z,10.87
2023-01-01T23:39:47.462Z,10.92
2023-01-01T23:41:49.425Z,10.87
2023-01-01T23:43:51.302Z,10.91
2023-01-01T23:45:53.123Z,10.81
2023-01-01T23:47:55.177Z,10.76
2023-01-01T23:49:57.143Z,10.75
2023-01-01T23:52:00.827Z,10.84
2023-01-01T23:54:02.725Z,10.84
2023-01-01T23:56:04.878Z,10.79
2023-01-01T23:58:06.613Z,10.85
